sensor_id;sensor_type;location;lat;lon;timestamp;P1;durP1;ratioP1;P2;durP2;ratioP2
35364;SDS011;21464;48.112;11.530;2023-11-18T00:01:30;10.53;;;9.40;;
35364;SDS011;21464;48.112;11.530;2023-11-18T00:03:57;9.70;;;8.80;;
35364;SDS011;21464;48.112;11.530;2023-11-18T00:06:23;10.60;;;9.50;;
35364;SDS011;21464;48.112;11.530;2023-11-18T00:08:49;9.63;;;8.73;;
35364;SDS011;21464;48.112;11.530;2023-11-18T00:11:15;8.70;;;7.80;;
35364;SDS011;21464;48.112;11.530;2023-11-18T00:13:42;9.40;;;8.50;;
35364;SDS011;21464;48.112;11.530;2023-11-18T00:16:11;9.27;;;8.37;;
35364;SDS011;21464;48.112;11.530;2023-11-18T00:18:42;9.60;;;8.60;;
35364;SDS011;21464;48.112;11.530;2023-11-18T00:21:08;9.40;;;8.50;;
35364;SDS011;21464;48.112;11.530;2023-11-18T00:23:35;8.70;;;7.67;;
35364;SDS011;21464;48.112;11.530;2023-11-18T00:26:01;9.17;;;8.27;;
35364;SDS011;21464;48.112;11.530;2023-11-18T00:28:28;8.23;;;7.43;;
35364;SDS011;21464;48.112;11.530;2023-11-18T00:30:54;8.60;;;7.90;;
35364;SDS011;21464;48.112;11.530;2023-11-18T00:33:20;8.10;;;7.30;;
35364;SDS011;21464;48.112;11.530;2023-11-18T00:35:47;8.63;;;7.37;;
35364;SDS011;21464;48.112;11.530;2023-11-18T00:38:13;8.20;;;7.40;;
35364;SDS011;21464;48.112;11.530;2023-11-18T00:40:40;7.00;;;6.30;;
35364;SDS011;21464;48.112;11.530;2023-11-18T00:43:06;7.70;;;6.97;;
35364;SDS011;21464;48.112;11.530;2023-11-18T00:45:34;7.43;;;6.73;;
35364;SDS011;21464;48.112;11.530;2023-11-18T00:48:00;7.03;;;6.33;;
35364;SDS011;21464;48.112;11.530;2023-11-18T00:50:26;6.83;;;6.23;;
35364;SDS011;21464;48.112;11.530;2023-11-18T00:52:52;5.87;;;5.27;;
35364;SDS011;21464;48.112;11.530;2023-11-18T00:55:18;6.00;;;5.30;;
35364;SDS011;21464;48.112;11.530;2023-11-18T00:57:45;6.30;;;5.00;;
35364;SDS011;21464;48.112;11.530;2023-11-18T01:00:12;5.20;;;4.80;;
35364;SDS011;21464;48.112;11.530;2023-11-18T01:02:43;5.00;;;4.60;;
35364;SDS011;21464;48.112;11.530;2023-11-18T01:05:09;4.93;;;4.20;;
35364;SDS011;21464;48.112;11.530;2023-11-18T01:07:37;4.07;;;3.77;;
35364;SDS011;21464;48.112;11.530;2023-11-18T01:10:04;4.00;;;3.70;;
35364;SDS011;21464;48.112;11.530;2023-11-18T01:12:32;4.17;;;3.83;;
35364;SDS011;21464;48.112;11.530;2023-11-18T01:14:59;3.80;;;3.50;;
35364;SDS011;21464;48.112;11.530;2023-11-18T01:17:26;3.87;;;3.57;;
35364;SDS011;21464;48.112;11.530;2023-11-18T01:19:52;3.83;;;3.53;;
35364;SDS011;21464;48.112;11.530;2023-11-18T01:22:19;3.90;;;3.67;;
35364;SDS011;21464;48.112;11.530;2023-11-18T01:24:45;3.90;;;3.60;;
35364;SDS011;21464;48.112;11.530;2023-11-18T01:27:12;3.67;;;3.37;;
35364;SDS011;21464;48.112;11.530;2023-11-18T01:29:39;4.00;;;3.60;;
35364;SDS011;21464;48.112;11.530;2023-11-18T01:32:06;3.70;;;3.40;;
35364;SDS011;21464;48.112;11.530;2023-11-18T01:34:35;4.23;;;3.60;;
35364;SDS011;21464;48.112;11.530;2023-11-18T01:37:03;3.50;;;3.20;;
35364;SDS011;21464;48.112;11.530;2023-11-18T01:39:34;3.87;;;3.57;;
35364;SDS011;21464;48.112;11.530;2023-11-18T01:42:00;3.67;;;3.37;;
35364;SDS011;21464;48.112;11.530;2023-11-18T01:44:27;4.20;;;3.60;;
35364;SDS011;21464;48.112;11.530;2023-11-18T01:46:57;4.13;;;3.83;;
35364;SDS011;21464;48.112;11.530;2023-11-18T01:49:23;4.07;;;3.77;;
35364;SDS011;21464;48.112;11.530;2023-11-18T01:51:50;3.93;;;3.63;;
35364;SDS011;21464;48.112;11.530;2023-11-18T01:54:22;4.33;;;3.97;;
35364;SDS011;21464;48.112;11.530;2023-11-18T01:56:50;3.57;;;3.27;;
35364;SDS011;21464;48.112;11.530;2023-11-18T01:59:21;4.00;;;3.70;;
35364;SDS011;21464;48.112;11.530;2023-11-18T02:01:48;3.57;;;3.27;;
35364;SDS011;21464;48.112;11.530;2023-11-18T02:04:17;3.53;;;3.33;;
35364;SDS011;21464;48.112;11.530;2023-11-18T02:06:45;4.27;;;3.97;;
35364;SDS011;21464;48.112;11.530;2023-11-18T02:09:22;4.27;;;3.87;;
35364;SDS011;21464;48.112;11.530;2023-11-18T02:14:42;3.97;;;3.60;;
35364;SDS011;21464;48.112;11.530;2023-11-18T02:17:09;4.20;;;3.90;;
35364;SDS011;21464;48.112;11.530;2023-11-18T02:19:36;3.77;;;3.57;;
35364;SDS011;21464;48.112;11.530;2023-11-18T02:22:05;4.37;;;3.97;;
35364;SDS011;21464;48.112;11.530;2023-11-18T02:24:37;4.30;;;4.00;;
35364;SDS011;21464;48.112;11.530;2023-11-18T02:27:04;4.23;;;3.90;;
35364;SDS011;21464;48.112;11.530;2023-11-18T02:29:34;4.10;;;3.80;;
35364;SDS011;21464;48.112;11.530;2023-11-18T02:34:52;4.03;;;3.73;;
35364;SDS011;21464;48.112;11.530;2023-11-18T02:37:23;3.70;;;3.40;;
35364;SDS011;21464;48.112;11.530;2023-11-18T02:39:52;3.70;;;3.50;;
35364;SDS011;21464;48.112;11.530;2023-11-18T02:42:19;4.10;;;3.80;;
35364;SDS011;21464;48.112;11.530;2023-11-18T02:44:47;4.10;;;3.80;;
35364;SDS011;21464;48.112;11.530;2023-11-18T02:47:15;4.20;;;3.90;;
35364;SDS011;21464;48.112;11.530;2023-11-18T02:49:42;3.73;;;3.43;;
35364;SDS011;21464;48.112;11.530;2023-11-18T02:52:08;3.80;;;3.50;;
35364;SDS011;21464;48.112;11.530;2023-11-18T02:54:35;3.77;;;3.47;;
35364;SDS011;21464;48.112;11.530;2023-11-18T02:57:02;4.07;;;3.50;;
35364;SDS011;21464;48.112;11.530;2023-11-18T02:59:28;3.60;;;3.30;;
35364;SDS011;21464;48.112;11.530;2023-11-18T03:01:56;4.27;;;3.87;;
35364;SDS011;21464;48.112;11.530;2023-11-18T03:04:23;4.90;;;4.03;;
35364;SDS011;21464;48.112;11.530;2023-11-18T03:06:50;4.20;;;3.90;;
35364;SDS011;21464;48.112;11.530;2023-11-18T03:09:17;5.23;;;4.60;;
35364;SDS011;21464;48.112;11.530;2023-11-18T03:11:46;4.20;;;3.90;;
35364;SDS011;21464;48.112;11.530;2023-11-18T03:14:12;4.90;;;4.50;;
35364;SDS011;21464;48.112;11.530;2023-11-18T03:16:38;4.27;;;3.93;;
35364;SDS011;21464;48.112;11.530;2023-11-18T03:19:05;4.40;;;4.10;;
35364;SDS011;21464;48.112;11.530;2023-11-18T03:21:31;4.80;;;4.40;;
35364;SDS011;21464;48.112;11.530;2023-11-18T03:23:57;4.97;;;4.30;;
35364;SDS011;21464;48.112;11.530;2023-11-18T03:26:24;4.23;;;3.83;;
35364;SDS011;21464;48.112;11.530;2023-11-18T03:28:51;4.77;;;4.37;;
35364;SDS011;21464;48.112;11.530;2023-11-18T03:31:18;4.77;;;4.17;;
35364;SDS011;21464;48.112;11.530;2023-11-18T03:33:45;4.70;;;4.30;;
35364;SDS011;21464;48.112;11.530;2023-11-18T03:36:11;5.30;;;4.80;;
35364;SDS011;21464;48.112;11.530;2023-11-18T03:38:38;5.10;;;4.60;;
35364;SDS011;21464;48.112;11.530;2023-11-18T03:41:04;4.47;;;4.17;;
35364;SDS011;21464;48.112;11.530;2023-11-18T03:43:30;4.57;;;4.17;;
35364;SDS011;21464;48.112;11.530;2023-11-18T03:45:56;5.00;;;4.60;;
35364;SDS011;21464;48.112;11.530;2023-11-18T03:48:23;5.00;;;4.50;;
35364;SDS011;21464;48.112;11.530;2023-11-18T03:50:49;5.57;;;5.10;;
35364;SDS011;21464;48.112;11.530;2023-11-18T03:53:16;5.23;;;4.83;;
35364;SDS011;21464;48.112;11.530;2023-11-18T03:55:42;5.30;;;4.90;;
35364;SDS011;21464;48.112;11.530;2023-11-18T03:58:08;5.40;;;4.90;;
35364;SDS011;21464;48.112;11.530;2023-11-18T04:00:34;6.27;;;5.50;;
35364;SDS011;21464;48.112;11.530;2023-11-18T04:03:01;5.30;;;4.80;;
35364;SDS011;21464;48.112;11.530;2023-11-18T04:05:27;6.37;;;5.77;;
35364;SDS011;21464;48.112;11.530;2023-11-18T04:07:53;6.07;;;5.57;;
35364;SDS011;21464;48.112;11.530;2023-11-18T04:10:20;6.10;;;5.50;;
35364;SDS011;21464;48.112;11.530;2023-11-18T04:12:46;6.83;;;6.23;;
35364;SDS011;21464;48.112;11.530;2023-11-18T04:15:14;6.20;;;5.70;;
35364;SDS011;21464;48.112;11.530;2023-11-18T04:17:41;6.40;;;5.80;;
35364;SDS011;21464;48.112;11.530;2023-11-18T04:20:08;6.37;;;5.77;;
35364;SDS011;21464;48.112;11.530;2023-11-18T04:22:38;6.67;;;6.07;;
35364;SDS011;21464;48.112;11.530;2023-11-18T04:25:08;6.00;;;5.40;;
35364;SDS011;21464;48.112;11.530;2023-11-18T04:27:38;5.47;;;4.97;;
35364;SDS011;21464;48.112;11.530;2023-11-18T04:30:05;6.10;;;5.50;;
35364;SDS011;21464;48.112;11.530;2023-11-18T04:32:32;6.20;;;5.57;;
35364;SDS011;21464;48.112;11.530;2023-11-18T04:34:59;6.30;;;5.80;;
35364;SDS011;21464;48.112;11.530;2023-11-18T04:37:26;6.27;;;5.70;;
35364;SDS011;21464;48.112;11.530;2023-11-18T04:39:52;5.80;;;5.30;;
35364;SDS011;21464;48.112;11.530;2023-11-18T04:42:19;5.93;;;5.43;;
35364;SDS011;21464;48.112;11.530;2023-11-18T04:44:46;5.20;;;4.73;;
35364;SDS011;21464;48.112;11.530;2023-11-18T04:47:12;6.10;;;5.50;;
35364;SDS011;21464;48.112;11.530;2023-11-18T04:49:38;5.50;;;5.00;;
35364;SDS011;21464;48.112;11.530;2023-11-18T04:52:05;5.90;;;5.17;;
35364;SDS011;21464;48.112;11.530;2023-11-18T04:54:32;5.40;;;5.00;;
35364;SDS011;21464;48.112;11.530;2023-11-18T04:56:58;6.07;;;5.57;;
35364;SDS011;21464;48.112;11.530;2023-11-18T04:59:24;5.93;;;5.33;;
35364;SDS011;21464;48.112;11.530;2023-11-18T05:01:50;6.17;;;5.60;;
35364;SDS011;21464;48.112;11.530;2023-11-18T05:04:19;5.67;;;5.17;;
35364;SDS011;21464;48.112;11.530;2023-11-18T05:06:45;5.90;;;5.40;;
35364;SDS011;21464;48.112;11.530;2023-11-18T05:09:11;6.23;;;5.63;;
35364;SDS011;21464;48.112;11.530;2023-11-18T05:11:37;5.80;;;5.27;;
35364;SDS011;21464;48.112;11.530;2023-11-18T05:14:04;5.90;;;5.40;;
35364;SDS011;21464;48.112;11.530;2023-11-18T05:16:30;6.13;;;5.63;;
35364;SDS011;21464;48.112;11.530;2023-11-18T05:18:57;6.27;;;5.77;;
35364;SDS011;21464;48.112;11.530;2023-11-18T05:21:23;6.63;;;6.03;;
35364;SDS011;21464;48.112;11.530;2023-11-18T05:23:49;6.70;;;5.90;;
35364;SDS011;21464;48.112;11.530;2023-11-18T05:26:16;6.70;;;5.57;;
35364;SDS011;21464;48.112;11.530;2023-11-18T05:28:43;6.30;;;5.70;;
35364;SDS011;21464;48.112;11.530;2023-11-18T05:31:11;6.30;;;5.73;;
35364;SDS011;21464;48.112;11.530;2023-11-18T05:33:37;6.33;;;5.73;;
35364;SDS011;21464;48.112;11.530;2023-11-18T05:36:03;5.90;;;5.37;;
35364;SDS011;21464;48.112;11.530;2023-11-18T05:38:33;6.03;;;5.50;;
35364;SDS011;21464;48.112;11.530;2023-11-18T05:41:01;5.80;;;5.30;;
35364;SDS011;21464;48.112;11.530;2023-11-18T05:43:29;6.10;;;5.50;;
35364;SDS011;21464;48.112;11.530;2023-11-18T05:46:02;5.83;;;5.33;;
35364;SDS011;21464;48.112;11.530;2023-11-18T05:48:41;5.97;;;5.47;;
35364;SDS011;21464;48.112;11.530;2023-11-18T05:51:08;6.33;;;5.73;;
35364;SDS011;21464;48.112;11.530;2023-11-18T05:53:41;6.10;;;5.50;;
35364;SDS011;21464;48.112;11.530;2023-11-18T05:56:12;6.43;;;5.67;;
35364;SDS011;21464;48.112;11.530;2023-11-18T05:58:39;5.83;;;5.30;;
35364;SDS011;21464;48.112;11.530;2023-11-18T06:01:05;5.47;;;4.80;;
35364;SDS011;21464;48.112;11.530;2023-11-18T06:03:35;5.47;;;4.97;;
35364;SDS011;21464;48.112;11.530;2023-11-18T06:06:05;6.27;;;5.67;;
35364;SDS011;21464;48.112;11.530;2023-11-18T06:08:33;6.43;;;5.83;;
35364;SDS011;21464;48.112;11.530;2023-11-18T06:11:07;5.10;;;4.60;;
35364;SDS011;21464;48.112;11.530;2023-11-18T06:16:21;6.67;;;5.17;;
35364;SDS011;21464;48.112;11.530;2023-11-18T06:18:48;5.40;;;4.90;;
35364;SDS011;21464;48.112;11.530;2023-11-18T06:21:19;6.03;;;5.40;;
35364;SDS011;21464;48.112;11.530;2023-11-18T06:24:00;6.10;;;5.50;;
35364;SDS011;21464;48.112;11.530;2023-11-18T06:26:31;5.03;;;4.63;;
35364;SDS011;21464;48.112;11.530;2023-11-18T06:29:01;5.10;;;4.60;;
35364;SDS011;21464;48.112;11.530;2023-11-18T06:31:29;5.93;;;5.20;;
35364;SDS011;21464;48.112;11.530;2023-11-18T06:33:56;5.90;;;5.37;;
35364;SDS011;21464;48.112;11.530;2023-11-18T06:36:22;6.00;;;5.40;;
35364;SDS011;21464;48.112;11.530;2023-11-18T06:38:49;5.30;;;4.80;;
35364;SDS011;21464;48.112;11.530;2023-11-18T06:41:17;5.77;;;5.27;;
35364;SDS011;21464;48.112;11.530;2023-11-18T06:43:49;6.10;;;4.90;;
35364;SDS011;21464;48.112;11.530;2023-11-18T06:46:18;6.33;;;5.30;;
35364;SDS011;21464;48.112;11.530;2023-11-18T06:48:47;5.43;;;4.90;;
35364;SDS011;21464;48.112;11.530;2023-11-18T06:51:15;5.23;;;4.73;;
35364;SDS011;21464;48.112;11.530;2023-11-18T06:53:44;5.03;;;4.50;;
35364;SDS011;21464;48.112;11.530;2023-11-18T06:56:11;5.50;;;5.00;;
35364;SDS011;21464;48.112;11.530;2023-11-18T06:58:38;6.27;;;5.43;;
35364;SDS011;21464;48.112;11.530;2023-11-18T07:01:05;6.27;;;5.67;;
35364;SDS011;21464;48.112;11.530;2023-11-18T07:03:57;6.00;;;5.47;;
35364;SDS011;21464;48.112;11.530;2023-11-18T07:06:23;7.90;;;6.53;;
35364;SDS011;21464;48.112;11.530;2023-11-18T07:08:52;5.37;;;4.87;;
35364;SDS011;21464;48.112;11.530;2023-11-18T07:11:19;6.20;;;5.60;;
35364;SDS011;21464;48.112;11.530;2023-11-18T07:13:48;5.97;;;5.27;;
35364;SDS011;21464;48.112;11.530;2023-11-18T07:16:15;8.83;;;5.90;;
35364;SDS011;21464;48.112;11.530;2023-11-18T07:18:41;6.73;;;5.80;;
35364;SDS011;21464;48.112;11.530;2023-11-18T07:21:10;5.87;;;5.37;;
35364;SDS011;21464;48.112;11.530;2023-11-18T07:23:36;6.13;;;5.53;;
35364;SDS011;21464;48.112;11.530;2023-11-18T07:26:03;5.67;;;5.17;;
35364;SDS011;21464;48.112;11.530;2023-11-18T07:28:31;5.37;;;4.87;;
35364;SDS011;21464;48.112;11.530;2023-11-18T07:30:58;7.27;;;6.53;;
35364;SDS011;21464;48.112;11.530;2023-11-18T07:33:25;6.40;;;5.80;;
35364;SDS011;21464;48.112;11.530;2023-11-18T07:35:52;6.40;;;5.80;;
35364;SDS011;21464;48.112;11.530;2023-11-18T07:38:18;6.33;;;5.73;;
35364;SDS011;21464;48.112;11.530;2023-11-18T07:40:46;6.40;;;5.80;;
35364;SDS011;21464;48.112;11.530;2023-11-18T07:43:13;5.77;;;5.17;;
35364;SDS011;21464;48.112;11.530;2023-11-18T07:45:40;5.73;;;5.13;;
35364;SDS011;21464;48.112;11.530;2023-11-18T07:48:08;5.90;;;5.00;;
35364;SDS011;21464;48.112;11.530;2023-11-18T07:50:36;5.57;;;5.07;;
35364;SDS011;21464;48.112;11.530;2023-11-18T07:53:02;5.40;;;4.90;;
35364;SDS011;21464;48.112;11.530;2023-11-18T07:55:29;5.70;;;5.13;;
35364;SDS011;21464;48.112;11.530;2023-11-18T07:57:56;5.90;;;5.30;;
35364;SDS011;21464;48.112;11.530;2023-11-18T08:00:22;5.33;;;4.87;;
35364;SDS011;21464;48.112;11.530;2023-11-18T08:02:49;5.30;;;4.90;;
35364;SDS011;21464;48.112;11.530;2023-11-18T08:05:20;6.20;;;4.93;;
35364;SDS011;21464;48.112;11.530;2023-11-18T08:07:49;5.53;;;4.93;;
35364;SDS011;21464;48.112;11.530;2023-11-18T08:10:15;5.07;;;4.67;;
35364;SDS011;21464;48.112;11.530;2023-11-18T08:12:45;5.47;;;4.97;;
35364;SDS011;21464;48.112;11.530;2023-11-18T08:15:12;5.37;;;4.87;;
35364;SDS011;21464;48.112;11.530;2023-11-18T08:17:39;5.50;;;5.00;;
35364;SDS011;21464;48.112;11.530;2023-11-18T08:20:06;5.40;;;4.90;;
35364;SDS011;21464;48.112;11.530;2023-11-18T08:22:40;5.57;;;5.07;;
35364;SDS011;21464;48.112;11.530;2023-11-18T08:25:10;4.60;;;4.23;;
35364;SDS011;21464;48.112;11.530;2023-11-18T08:27:41;5.40;;;4.90;;
35364;SDS011;21464;48.112;11.530;2023-11-18T08:30:08;5.43;;;4.93;;
35364;SDS011;21464;48.112;11.530;2023-11-18T08:32:39;6.63;;;5.97;;
35364;SDS011;21464;48.112;11.530;2023-11-18T08:35:05;4.93;;;4.47;;
35364;SDS011;21464;48.112;11.530;2023-11-18T08:37:34;5.27;;;4.73;;
35364;SDS011;21464;48.112;11.530;2023-11-18T08:40:03;4.27;;;3.97;;
35364;SDS011;21464;48.112;11.530;2023-11-18T08:42:33;5.03;;;3.83;;
35364;SDS011;21464;48.112;11.530;2023-11-18T08:45:00;4.20;;;3.80;;
35364;SDS011;21464;48.112;11.530;2023-11-18T08:47:26;4.30;;;3.90;;
35364;SDS011;21464;48.112;11.530;2023-11-18T08:49:53;4.80;;;4.40;;
35364;SDS011;21464;48.112;11.530;2023-11-18T08:52:21;4.20;;;3.90;;
35364;SDS011;21464;48.112;11.530;2023-11-18T08:54:47;4.17;;;3.77;;
35364;SDS011;21464;48.112;11.530;2023-11-18T08:57:31;3.90;;;3.60;;
35364;SDS011;21464;48.112;11.530;2023-11-18T09:00:14;4.23;;;3.50;;
35364;SDS011;21464;48.112;11.530;2023-11-18T09:02:59;3.87;;;3.57;;
35364;SDS011;21464;48.112;11.530;2023-11-18T09:05:27;3.90;;;3.60;;
35364;SDS011;21464;48.112;11.530;2023-11-18T09:07:58;3.93;;;3.63;;
35364;SDS011;21464;48.112;11.530;2023-11-18T09:10:26;4.00;;;3.67;;
35364;SDS011;21464;48.112;11.530;2023-11-18T09:12:54;3.73;;;3.43;;
35364;SDS011;21464;48.112;11.530;2023-11-18T09:15:20;4.00;;;3.70;;
35364;SDS011;21464;48.112;11.530;2023-11-18T09:17:50;4.00;;;3.60;;
35364;SDS011;21464;48.112;11.530;2023-11-18T09:20:16;5.33;;;3.73;;
35364;SDS011;21464;48.112;11.530;2023-11-18T09:22:48;3.57;;;3.37;;
35364;SDS011;21464;48.112;11.530;2023-11-18T09:25:15;3.57;;;3.30;;
35364;SDS011;21464;48.112;11.530;2023-11-18T09:27:41;3.40;;;3.20;;
35364;SDS011;21464;48.112;11.530;2023-11-18T09:30:08;4.23;;;3.83;;
35364;SDS011;21464;48.112;11.530;2023-11-18T09:32:40;3.50;;;3.30;;
35364;SDS011;21464;48.112;11.530;2023-11-18T09:35:13;3.50;;;3.20;;
35364;SDS011;21464;48.112;11.530;2023-11-18T09:37:40;3.30;;;3.10;;
35364;SDS011;21464;48.112;11.530;2023-11-18T09:40:07;3.80;;;3.43;;
35364;SDS011;21464;48.112;11.530;2023-11-18T09:42:37;3.03;;;2.83;;
35364;SDS011;21464;48.112;11.530;2023-11-18T09:45:05;3.43;;;3.13;;
35364;SDS011;21464;48.112;11.530;2023-11-18T09:47:36;3.27;;;3.00;;
35364;SDS011;21464;48.112;11.530;2023-11-18T09:50:10;3.47;;;3.07;;
35364;SDS011;21464;48.112;11.530;2023-11-18T09:52:38;5.20;;;3.00;;
35364;SDS011;21464;48.112;11.530;2023-11-18T09:55:09;2.93;;;2.73;;
35364;SDS011;21464;48.112;11.530;2023-11-18T09:57:43;3.17;;;2.97;;
35364;SDS011;21464;48.112;11.530;2023-11-18T10:00:11;3.20;;;3.00;;
35364;SDS011;21464;48.112;11.530;2023-11-18T10:02:52;2.90;;;2.70;;
35364;SDS011;21464;48.112;11.530;2023-11-18T10:05:21;2.60;;;2.40;;
35364;SDS011;21464;48.112;11.530;2023-11-18T10:07:48;2.30;;;2.10;;
35364;SDS011;21464;48.112;11.530;2023-11-18T10:10:15;2.10;;;2.00;;
35364;SDS011;21464;48.112;11.530;2023-11-18T10:12:43;2.20;;;2.10;;
35364;SDS011;21464;48.112;11.530;2023-11-18T10:15:14;2.13;;;2.03;;
35364;SDS011;21464;48.112;11.530;2023-11-18T10:17:44;2.43;;;2.27;;
35364;SDS011;21464;48.112;11.530;2023-11-18T10:23:14;2.07;;;1.97;;
35364;SDS011;21464;48.112;11.530;2023-11-18T10:25:45;2.13;;;2.03;;
35364;SDS011;21464;48.112;11.530;2023-11-18T10:30:56;2.57;;;2.37;;
35364;SDS011;21464;48.112;11.530;2023-11-18T10:33:30;2.40;;;2.00;;
35364;SDS011;21464;48.112;11.530;2023-11-18T10:35:57;2.27;;;2.10;;
35364;SDS011;21464;48.112;11.530;2023-11-18T10:38:24;2.10;;;1.90;;
35364;SDS011;21464;48.112;11.530;2023-11-18T10:40:55;2.20;;;2.00;;
35364;SDS011;21464;48.112;11.530;2023-11-18T10:43:23;2.00;;;1.90;;
35364;SDS011;21464;48.112;11.530;2023-11-18T10:46:03;1.80;;;1.70;;
35364;SDS011;21464;48.112;11.530;2023-11-18T10:48:44;2.10;;;1.87;;
35364;SDS011;21464;48.112;11.530;2023-11-18T10:51:14;1.97;;;1.73;;
35364;SDS011;21464;48.112;11.530;2023-11-18T10:53:42;8.47;;;3.67;;
35364;SDS011;21464;48.112;11.530;2023-11-18T10:56:24;2.20;;;1.73;;
35364;SDS011;21464;48.112;11.530;2023-11-18T10:58:59;1.83;;;1.73;;
35364;SDS011;21464;48.112;11.530;2023-11-18T11:01:32;2.17;;;2.07;;
35364;SDS011;21464;48.112;11.530;2023-11-18T11:03:59;2.00;;;1.90;;
35364;SDS011;21464;48.112;11.530;2023-11-18T11:06:30;1.80;;;1.70;;
35364;SDS011;21464;48.112;11.530;2023-11-18T11:08:58;2.07;;;1.93;;
35364;SDS011;21464;48.112;11.530;2023-11-18T11:11:25;2.53;;;1.97;;
35364;SDS011;21464;48.112;11.530;2023-11-18T11:13:58;2.63;;;2.43;;
35364;SDS011;21464;48.112;11.530;2023-11-18T11:16:33;1.80;;;1.70;;
35364;SDS011;21464;48.112;11.530;2023-11-18T11:19:04;1.87;;;1.77;;
35364;SDS011;21464;48.112;11.530;2023-11-18T11:21:41;1.60;;;1.50;;
35364;SDS011;21464;48.112;11.530;2023-11-18T11:24:18;1.70;;;1.60;;
35364;SDS011;21464;48.112;11.530;2023-11-18T11:30:02;1.80;;;1.70;;
35364;SDS011;21464;48.112;11.530;2023-11-18T11:32:39;1.73;;;1.63;;
35364;SDS011;21464;48.112;11.530;2023-11-18T11:35:14;1.30;;;1.30;;
35364;SDS011;21464;48.112;11.530;2023-11-18T11:37:47;1.93;;;1.73;;
35364;SDS011;21464;48.112;11.530;2023-11-18T11:40:14;1.53;;;1.43;;
35364;SDS011;21464;48.112;11.530;2023-11-18T11:42:50;1.47;;;1.30;;
35364;SDS011;21464;48.112;11.530;2023-11-18T11:45:21;1.50;;;1.40;;
35364;SDS011;21464;48.112;11.530;2023-11-18T11:47:54;2.20;;;1.60;;
35364;SDS011;21464;48.112;11.530;2023-11-18T11:50:43;1.50;;;1.40;;
35364;SDS011;21464;48.112;11.530;2023-11-18T11:53:15;1.50;;;1.30;;
35364;SDS011;21464;48.112;11.530;2023-11-18T11:55:52;2.30;;;1.30;;
35364;SDS011;21464;48.112;11.530;2023-11-18T11:58:29;1.70;;;1.60;;
35364;SDS011;21464;48.112;11.530;2023-11-18T12:01:15;1.50;;;1.40;;
35364;SDS011;21464;48.112;11.530;2023-11-18T12:03:59;1.93;;;1.40;;
35364;SDS011;21464;48.112;11.530;2023-11-18T12:06:32;1.30;;;1.30;;
35364;SDS011;21464;48.112;11.530;2023-11-18T12:09:03;1.80;;;1.70;;
35364;SDS011;21464;48.112;11.530;2023-11-18T12:11:35;1.63;;;1.53;;
35364;SDS011;21464;48.112;11.530;2023-11-18T12:14:06;2.87;;;1.90;;
35364;SDS011;21464;48.112;11.530;2023-11-18T12:19:42;1.80;;;1.50;;
35364;SDS011;21464;48.112;11.530;2023-11-18T12:22:15;1.83;;;1.57;;
35364;SDS011;21464;48.112;11.530;2023-11-18T12:35:22;2.03;;;1.83;;
35364;SDS011;21464;48.112;11.530;2023-11-18T12:43:16;3.07;;;1.60;;
35364;SDS011;21464;48.112;11.530;2023-11-18T12:46:37;1.87;;;1.70;;
35364;SDS011;21464;48.112;11.530;2023-11-18T12:48:44;1.53;;;1.43;;
35364;SDS011;21464;48.112;11.530;2023-11-18T12:51:12;1.87;;;1.60;;
35364;SDS011;21464;48.112;11.530;2023-11-18T12:53:47;1.50;;;1.40;;
35364;SDS011;21464;48.112;11.530;2023-11-18T12:56:15;1.50;;;1.33;;
35364;SDS011;21464;48.112;11.530;2023-11-18T12:58:48;1.60;;;1.50;;
35364;SDS011;21464;48.112;11.530;2023-11-18T13:01:14;1.60;;;1.50;;
35364;SDS011;21464;48.112;11.530;2023-11-18T13:03:42;1.70;;;1.60;;
35364;SDS011;21464;48.112;11.530;2023-11-18T13:06:09;2.70;;;1.63;;
35364;SDS011;21464;48.112;11.530;2023-11-18T13:08:38;2.00;;;1.90;;
35364;SDS011;21464;48.112;11.530;2023-11-18T13:11:04;1.67;;;1.47;;
35364;SDS011;21464;48.112;11.530;2023-11-18T13:13:34;2.27;;;1.70;;
35364;SDS011;21464;48.112;11.530;2023-11-18T13:16:01;1.97;;;1.47;;
35364;SDS011;21464;48.112;11.530;2023-11-18T13:18:29;1.57;;;1.37;;
35364;SDS011;21464;48.112;11.530;2023-11-18T13:21:07;2.80;;;1.83;;
35364;SDS011;21464;48.112;11.530;2023-11-18T13:23:36;3.03;;;1.80;;
35364;SDS011;21464;48.112;11.530;2023-11-18T13:26:03;2.10;;;1.60;;
35364;SDS011;21464;48.112;11.530;2023-11-18T13:28:31;2.67;;;1.97;;
35364;SDS011;21464;48.112;11.530;2023-11-18T13:30:58;2.27;;;1.60;;
35364;SDS011;21464;48.112;11.530;2023-11-18T13:33:24;2.87;;;1.60;;
35364;SDS011;21464;48.112;11.530;2023-11-18T13:35:50;2.63;;;1.60;;
35364;SDS011;21464;48.112;11.530;2023-11-18T13:38:17;2.73;;;1.80;;
35364;SDS011;21464;48.112;11.530;2023-11-18T13:40:44;1.97;;;1.87;;
35364;SDS011;21464;48.112;11.530;2023-11-18T13:43:12;3.20;;;1.80;;
35364;SDS011;21464;48.112;11.530;2023-11-18T13:45:40;1.90;;;1.80;;
35364;SDS011;21464;48.112;11.530;2023-11-18T13:48:08;13.60;;;9.07;;
35364;SDS011;21464;48.112;11.530;2023-11-18T13:50:35;9.80;;;6.37;;
35364;SDS011;21464;48.112;11.530;2023-11-18T13:53:04;2.40;;;1.77;;
35364;SDS011;21464;48.112;11.530;2023-11-18T13:55:33;2.03;;;1.60;;
35364;SDS011;21464;48.112;11.530;2023-11-18T13:58:01;1.80;;;1.70;;
35364;SDS011;21464;48.112;11.530;2023-11-18T14:00:30;2.07;;;1.57;;
35364;SDS011;21464;48.112;11.530;2023-11-18T14:02:58;1.87;;;1.70;;
35364;SDS011;21464;48.112;11.530;2023-11-18T14:05:25;3.33;;;2.73;;
35364;SDS011;21464;48.112;11.530;2023-11-18T14:07:51;3.43;;;2.07;;
35364;SDS011;21464;48.112;11.530;2023-11-18T14:10:22;2.83;;;2.00;;
35364;SDS011;21464;48.112;11.530;2023-11-18T14:15:32;2.00;;;1.80;;
35364;SDS011;21464;48.112;11.530;2023-11-18T14:18:01;2.03;;;1.73;;
35364;SDS011;21464;48.112;11.530;2023-11-18T14:20:28;2.13;;;1.93;;
35364;SDS011;21464;48.112;11.530;2023-11-18T14:22:57;1.93;;;1.73;;
35364;SDS011;21464;48.112;11.530;2023-11-18T14:25:27;1.60;;;1.50;;
35364;SDS011;21464;48.112;11.530;2023-11-18T14:27:54;2.03;;;1.40;;
35364;SDS011;21464;48.112;11.530;2023-11-18T14:30:20;3.40;;;1.57;;
35364;SDS011;21464;48.112;11.530;2023-11-18T14:32:50;3.07;;;1.80;;
35364;SDS011;21464;48.112;11.530;2023-11-18T14:35:17;3.93;;;1.90;;
35364;SDS011;21464;48.112;11.530;2023-11-18T14:37:44;1.83;;;1.40;;
35364;SDS011;21464;48.112;11.530;2023-11-18T14:40:11;3.07;;;1.80;;
35364;SDS011;21464;48.112;11.530;2023-11-18T14:42:41;2.67;;;1.60;;
35364;SDS011;21464;48.112;11.530;2023-11-18T14:45:15;4.93;;;3.03;;
35364;SDS011;21464;48.112;11.530;2023-11-18T14:47:41;3.93;;;2.60;;
35364;SDS011;21464;48.112;11.530;2023-11-18T14:50:20;1.47;;;1.40;;
35364;SDS011;21464;48.112;11.530;2023-11-18T14:52:47;1.53;;;1.43;;
35364;SDS011;21464;48.112;11.530;2023-11-18T14:55:14;2.10;;;1.80;;
35364;SDS011;21464;48.112;11.530;2023-11-18T14:57:46;1.90;;;1.80;;
35364;SDS011;21464;48.112;11.530;2023-11-18T15:00:12;3.97;;;2.87;;
35364;SDS011;21464;48.112;11.530;2023-11-18T15:02:45;1.73;;;1.63;;
35364;SDS011;21464;48.112;11.530;2023-11-18T15:05:13;2.03;;;1.83;;
35364;SDS011;21464;48.112;11.530;2023-11-18T15:07:46;3.57;;;2.40;;
35364;SDS011;21464;48.112;11.530;2023-11-18T15:10:14;3.40;;;2.20;;
35364;SDS011;21464;48.112;11.530;2023-11-18T15:12:52;3.53;;;2.40;;
35364;SDS011;21464;48.112;11.530;2023-11-18T15:15:21;2.87;;;2.20;;
35364;SDS011;21464;48.112;11.530;2023-11-18T15:17:48;2.47;;;2.27;;
35364;SDS011;21464;48.112;11.530;2023-11-18T15:20:15;5.27;;;2.70;;
35364;SDS011;21464;48.112;11.530;2023-11-18T15:22:44;2.53;;;2.30;;